createdAt,value
2023-03-29T00:00:05.959Z,726.00
2023-03-29T00:01:06.067Z,727.00
2023-03-29T00:02:06.104Z,727.00
2023-03-29T00:03:06.339Z,724.00
2023-03-29T00:04:06.464Z,723.00
2023-03-29T00:05:05.276Z,724.00
2023-03-29T00:06:05.349Z,725.00
2023-03-29T00:07:06.425Z,725.00
2023-03-29T00:08:06.482Z,722.00
2023-03-29T00:09:06.554Z,724.00
2023-03-29T00:10:05.592Z,724.00
2023-03-29T00:11:06.673Z,722.00
2023-03-29T00:12:05.705Z,721.00
2023-03-29T00:13:06.781Z,721.00
2023-03-29T00:14:06.843Z,724.00
2023-03-29T00:15:06.918Z,724.00
2023-03-29T00:16:06.965Z,724.00
2023-03-29T00:17:07.146Z,723.00
2023-03-29T00:18:07.259Z,720.00
2023-03-29T00:19:07.158Z,720.00
2023-03-29T00:20:07.218Z,719.00
2023-03-29T00:21:07.292Z,717.00
2023-03-29T00:22:07.356Z,718.00
2023-03-29T00:23:06.406Z,717.00
2023-03-29T00:24:07.464Z,718.00
2023-03-29T00:25:07.549Z,720.00
2023-03-29T00:26:08.315Z,724.00
2023-03-29T00:27:07.634Z,726.00
2023-03-29T00:28:06.699Z,726.00
2023-03-29T00:29:07.761Z,726.00
2023-03-29T00:30:07.841Z,726.00
2023-03-29T00:31:07.952Z,727.00
2023-03-29T00:32:07.960Z,727.00
2023-03-29T00:33:08.113Z,727.00
2023-03-29T00:34:08.070Z,728.00
2023-03-29T00:35:08.137Z,728.00
2023-03-29T00:36:08.255Z,728.00
2023-03-29T00:37:08.275Z,728.00
2023-03-29T00:38:08.336Z,728.00
2023-03-29T00:39:08.416Z,728.00
2023-03-29T00:40:08.450Z,732.00
2023-03-29T00:41:07.508Z,731.00
2023-03-29T00:42:08.590Z,732.00
2023-03-29T00:43:08.633Z,732.00
2023-03-29T00:44:07.688Z,731.00
2023-03-29T00:45:07.760Z,728.00
2023-03-29T00:46:08.806Z,729.00
2023-03-29T00:47:08.854Z,730.00
2023-03-29T00:48:08.543Z,726.00
2023-03-29T00:49:08.978Z,726.00
2023-03-29T00:50:09.012Z,725.00
2023-03-29T00:51:09.969Z,726.00
2023-03-29T00:52:09.089Z,726.00
2023-03-29T00:53:09.150Z,732.00
2023-03-29T00:54:09.121Z,733.00
2023-03-29T00:55:09.134Z,734.00
2023-03-29T00:56:08.131Z,734.00
2023-03-29T00:57:08.154Z,734.00
2023-03-29T00:58:09.166Z,736.00
2023-03-29T00:59:09.144Z,735.00
2023-03-29T01:00:09.166Z,732.00
2023-03-29T01:01:09.162Z,728.00
2023-03-29T01:02:08.240Z,727.00
2023-03-29T01:03:09.257Z,726.00
2023-03-29T01:04:08.292Z,725.00
2023-03-29T01:05:09.228Z,726.00
2023-03-29T01:06:09.218Z,726.00
2023-03-29T01:07:08.372Z,725.00
2023-03-29T01:08:09.290Z,727.00
2023-03-29T01:09:08.291Z,726.00
2023-03-29T01:10:09.311Z,725.00
2023-03-29T01:11:08.334Z,724.00
2023-03-29T01:12:09.331Z,727.00
2023-03-29T01:13:09.364Z,729.00
2023-03-29T01:14:08.397Z,729.00
2023-03-29T01:15:09.415Z,728.00
2023-03-29T01:16:09.489Z,727.00
2023-03-29T01:17:09.473Z,724.00
2023-03-29T01:18:08.634Z,722.00
2023-03-29T01:19:09.596Z,722.00
2023-03-29T01:20:09.647Z,722.00
2023-03-29T01:21:09.727Z,725.00
2023-03-29T01:22:09.709Z,724.00
2023-03-29T01:23:09.720Z,727.00
2023-03-29T01:24:09.781Z,728.00
2023-03-29T01:25:08.759Z,730.00
2023-03-29T01:26:09.768Z,730.00
2023-03-29T01:27:09.766Z,731.00
2023-03-29T01:28:09.778Z,729.00
2023-03-29T01:29:09.785Z,728.00
2023-03-29T01:30:08.818Z,728.00
2023-03-29T01:31:09.789Z,728.00
2023-03-29T01:32:09.928Z,728.00
2023-03-29T01:33:09.804Z,726.00
2023-03-29T01:34:08.790Z,726.00
2023-03-29T01:35:09.815Z,724.00
2023-03-29T01:36:08.887Z,722.00
2023-03-29T01:37:09.860Z,721.00
2023-03-29T01:38:09.843Z,723.00
2023-03-29T01:39:09.871Z,723.00
2023-03-29T01:40:09.876Z,723.00
2023-03-29T01:41:09.903Z,722.00
2023-03-29T01:42:08.897Z,722.00
2023-03-29T01:43:09.918Z,722.00
2023-03-29T01:44:09.893Z,719.00
2023-03-29T01:45:09.904Z,721.00
2023-03-29T01:46:09.942Z,725.00
2023-03-29T01:47:09.971Z,724.00
2023-03-29T01:48:09.937Z,723.00
2023-03-29T01:49:09.927Z,725.00
2023-03-29T01:50:09.938Z,726.00
2023-03-29T01:51:08.965Z,726.00
2023-03-29T01:52:09.985Z,728.00
2023-03-29T01:53:10.047Z,728.00
2023-03-29T01:54:10.026Z,729.00
2023-03-29T01:55:09.041Z,732.00
2023-03-29T01:56:10.041Z,730.00
2023-03-29T01:57:10.103Z,728.00
2023-03-29T01:58:10.145Z,725.00
2023-03-29T01:59:10.203Z,726.00
2023-03-29T02:00:10.263Z,724.00
2023-03-29T02:01:09.330Z,727.00
2023-03-29T02:02:10.426Z,731.00
2023-03-29T02:03:10.630Z,733.00
2023-03-29T02:04:10.517Z,733.00
2023-03-29T02:05:10.545Z,734.00
2023-03-29T02:06:09.595Z,734.00
2023-03-29T02:07:10.674Z,733.00
2023-03-29T02:08:10.713Z,732.00
2023-03-29T02:09:10.859Z,733.00
2023-03-29T02:10:10.847Z,731.00
2023-03-29T02:11:10.914Z,730.00
2023-03-29T02:12:10.971Z,728.00
2023-03-29T02:13:11.026Z,725.00
2023-03-29T02:14:10.090Z,724.00
2023-03-29T02:15:11.213Z,724.00
2023-03-29T02:16:10.262Z,724.00
2023-03-29T02:17:11.269Z,721.00
2023-03-29T02:18:11.319Z,720.00
2023-03-29T02:19:10.353Z,720.00
2023-03-29T02:20:11.392Z,714.00
2023-03-29T02:21:11.437Z,714.00
2023-03-29T02:22:11.464Z,713.00
2023-03-29T02:23:11.522Z,712.00
2023-03-29T02:24:11.555Z,712.00
2023-03-29T02:25:11.603Z,710.00
2023-03-29T02:26:10.594Z,709.00
2023-03-29T02:27:10.637Z,708.00
2023-03-29T02:28:10.675Z,708.00
2023-03-29T02:29:11.698Z,707.00
2023-03-29T02:30:11.732Z,708.00
2023-03-29T02:31:11.773Z,707.00
2023-03-29T02:32:11.772Z,705.00
2023-03-29T02:33:11.804Z,703.00
2023-03-29T02:34:11.823Z,704.00
2023-03-29T02:35:11.849Z,704.00
2023-03-29T02:36:11.886Z,705.00
2023-03-29T02:37:11.895Z,705.00
2023-03-29T02:38:11.885Z,706.00
2023-03-29T02:39:10.905Z,707.00
2023-03-29T02:40:11.951Z,709.00
2023-03-29T02:41:11.972Z,710.00
2023-03-29T02:42:11.968Z,712.00
2023-03-29T02:43:11.981Z,714.00
2023-03-29T02:44:10.966Z,714.00
2023-03-29T02:45:12.006Z,713.00
2023-03-29T02:46:12.024Z,712.00
2023-03-29T02:47:11.997Z,712.00
2023-03-29T02:48:11.998Z,712.00
2023-03-29T02:49:11.990Z,712.00
2023-03-29T02:50:12.005Z,713.00
2023-03-29T02:51:12.000Z,710.00
2023-03-29T02:52:12.024Z,709.00
2023-03-29T02:53:12.039Z,709.00
2023-03-29T02:54:12.018Z,709.00
2023-03-29T02:55:12.024Z,708.00
2023-03-29T02:56:12.049Z,708.00
2023-03-29T02:57:12.095Z,711.00
2023-03-29T02:58:11.055Z,712.00
2023-03-29T02:59:12.036Z,712.00
2023-03-29T03:00:11.044Z,713.00
2023-03-29T03:01:12.044Z,715.00
2023-03-29T03:02:12.106Z,716.00
2023-03-29T03:03:11.111Z,716.00
2023-03-29T03:04:12.110Z,715.00
2023-03-29T03:05:11.047Z,712.00
2023-03-29T03:06:11.062Z,714.00
2023-03-29T03:07:12.042Z,716.00
2023-03-29T03:08:12.033Z,714.00
2023-03-29T03:09:12.036Z,714.00
2023-03-29T03:10:12.053Z,711.00
2023-03-29T03:11:12.037Z,711.00
2023-03-29T03:12:12.048Z,711.00
2023-03-29T03:13:11.053Z,711.00
2023-03-29T03:14:12.034Z,710.00
2023-03-29T03:15:12.018Z,713.00
2023-03-29T03:16:12.072Z,712.00
2023-03-29T03:17:12.048Z,712.00
2023-03-29T03:18:12.021Z,712.00
2023-03-29T03:19:12.016Z,710.00
2023-03-29T03:20:12.015Z,710.00
2023-03-29T03:21:12.003Z,712.00
2023-03-29T03:22:12.120Z,713.00
2023-03-29T03:23:11.992Z,710.00
2023-03-29T03:24:12.009Z,709.00
2023-03-29T03:25:12.021Z,710.00
2023-03-29T03:26:12.004Z,711.00
2023-03-29T03:27:11.999Z,711.00
2023-03-29T03:28:12.009Z,711.00
2023-03-29T03:29:12.034Z,712.00
2023-03-29T03:30:12.060Z,710.00
2023-03-29T03:31:12.057Z,712.00
2023-03-29T03:32:12.033Z,713.00
2023-03-29T03:33:12.045Z,711.00
2023-03-29T03:34:12.074Z,714.00
2023-03-29T03:35:11.089Z,716.00
2023-03-29T03:36:12.199Z,717.00
2023-03-29T03:37:12.089Z,714.00
2023-03-29T03:38:11.061Z,714.00
2023-03-29T03:39:12.075Z,713.00
2023-03-29T03:40:12.216Z,714.00
2023-03-29T03:41:12.085Z,714.00
2023-03-29T03:42:11.086Z,711.00
2023-03-29T03:43:12.075Z,710.00
2023-03-29T03:44:12.091Z,711.00
2023-03-29T03:45:12.119Z,710.00
2023-03-29T03:46:12.151Z,709.00
2023-03-29T03:47:11.075Z,708.00
2023-03-29T03:48:12.095Z,707.00
2023-03-29T03:49:12.093Z,709.00
2023-03-29T03:50:12.090Z,710.00
2023-03-29T03:51:12.086Z,709.00
2023-03-29T03:52:12.090Z,709.00
2023-03-29T03:53:12.070Z,707.00
2023-03-29T03:54:12.072Z,710.00
2023-03-29T03:55:12.069Z,711.00
2023-03-29T03:56:11.090Z,712.00
2023-03-29T03:57:11.150Z,711.00
2023-03-29T03:58:12.112Z,711.00
2023-03-29T03:59:12.119Z,713.00
2023-03-29T04:00:11.108Z,715.00
2023-03-29T04:01:12.133Z,716.00
2023-03-29T04:02:11.149Z,718.00
2023-03-29T04:03:12.199Z,718.00
2023-03-29T04:04:12.161Z,717.00
2023-03-29T04:05:12.139Z,715.00
2023-03-29T04:06:12.139Z,717.00
2023-03-29T04:07:12.144Z,716.00
2023-03-29T04:08:12.134Z,715.00
2023-03-29T04:09:12.151Z,715.00
2023-03-29T04:10:11.204Z,713.00
2023-03-29T04:11:12.167Z,712.00
2023-03-29T04:12:11.192Z,714.00
2023-03-29T04:13:12.189Z,713.00
2023-03-29T04:14:11.210Z,712.00
2023-03-29T04:15:12.301Z,710.00
2023-03-29T04:16:12.282Z,707.00
2023-03-29T04:17:12.241Z,706.00
2023-03-29T04:18:12.328Z,706.00
2023-03-29T04:19:11.262Z,707.00
2023-03-29T04:20:12.292Z,709.00
2023-03-29T04:21:12.304Z,707.00
2023-03-29T04:22:12.311Z,708.00
2023-03-29T04:23:12.305Z,709.00
2023-03-29T04:24:12.318Z,709.00
2023-03-29T04:25:12.336Z,711.00
2023-03-29T04:26:12.360Z,713.00
2023-03-29T04:27:12.365Z,714.00
2023-03-29T04:28:12.390Z,715.00
2023-03-29T04:29:12.378Z,715.00
2023-03-29T04:30:11.398Z,716.00
2023-03-29T04:31:11.456Z,714.00
2023-03-29T04:32:12.410Z,714.00
2023-03-29T04:33:12.490Z,715.00
2023-03-29T04:34:12.437Z,717.00
2023-03-29T04:35:12.435Z,717.00
2023-03-29T04:36:12.498Z,716.00
2023-03-29T04:37:12.435Z,716.00
2023-03-29T04:38:12.437Z,714.00
2023-03-29T04:39:12.446Z,711.00
2023-03-29T04:40:12.456Z,712.00
2023-03-29T04:41:12.459Z,714.00
2023-03-29T04:42:12.459Z,715.00
2023-03-29T04:43:12.002Z,713.00
2023-03-29T04:44:12.449Z,711.00
2023-03-29T04:45:12.516Z,711.00
2023-03-29T04:46:12.530Z,711.00
2023-03-29T04:47:12.471Z,709.00
2023-03-29T04:48:12.566Z,711.00
2023-03-29T04:49:12.536Z,707.00
2023-03-29T04:50:12.521Z,705.00
2023-03-29T04:51:12.514Z,706.00
2023-03-29T04:52:12.536Z,707.00
2023-03-29T04:53:12.541Z,707.00
2023-03-29T04:54:12.554Z,706.00
2023-03-29T04:55:11.535Z,706.00
2023-03-29T04:56:12.550Z,706.00
2023-03-29T04:57:12.597Z,707.00
2023-03-29T04:58:12.575Z,705.00
2023-03-29T04:59:12.551Z,704.00
2023-03-29T05:00:12.552Z,704.00
2023-03-29T05:01:12.568Z,705.00
2023-03-29T05:02:12.620Z,704.00
2023-03-29T05:03:12.600Z,704.00
2023-03-29T05:04:13.018Z,706.00
2023-03-29T05:06:11.706Z,705.00
2023-03-29T05:07:12.585Z,707.00
2023-03-29T05:08:12.665Z,707.00
2023-03-29T05:09:12.622Z,706.00
2023-03-29T05:10:12.655Z,707.00
2023-03-29T05:11:12.632Z,710.00
2023-03-29T05:14:11.612Z,707.00
2023-03-29T05:15:12.637Z,705.00
2023-03-29T05:16:12.724Z,706.00
2023-03-29T05:17:12.681Z,706.00
2023-03-29T05:18:11.738Z,705.00
2023-03-29T05:19:12.668Z,704.00
2023-03-29T05:20:12.674Z,703.00
2023-03-29T05:21:12.710Z,706.00
2023-03-29T05:25:11.664Z,710.00
2023-03-29T05:26:12.687Z,711.00
2023-03-29T05:29:11.663Z,716.00
2023-03-29T05:30:12.633Z,715.00
2023-03-29T05:31:15.416Z,716.00
2023-03-29T05:36:11.638Z,734.00
2023-03-29T05:37:12.620Z,738.00
2023-03-29T05:38:11.601Z,740.00
2023-03-29T05:39:12.603Z,743.00
2023-03-29T05:41:11.605Z,748.00
2023-03-29T05:42:12.584Z,746.00
2023-03-29T05:43:12.598Z,747.00
2023-03-29T05:44:12.555Z,754.00
2023-03-29T05:48:11.563Z,831.00
2023-03-29T05:49:12.602Z,826.00
2023-03-29T05:50:12.600Z,829.00
2023-03-29T05:53:11.553Z,855.00
2023-03-29T05:54:12.638Z,916.00
2023-03-29T05:56:11.549Z,918.00
2023-03-29T05:57:12.619Z,911.00
2023-03-29T05:58:12.556Z,912.00
2023-03-29T06:02:11.664Z,1143.00
2023-03-29T06:03:20.188Z,1394.00
2023-03-29T06:04:12.673Z,1403.00
2023-03-29T06:05:12.552Z,1070.00
2023-03-29T06:06:12.556Z,1087.00
2023-03-29T06:07:12.690Z,1144.00
2023-03-29T06:08:12.547Z,1140.00
2023-03-29T06:09:12.572Z,1107.00
2023-03-29T06:10:11.545Z,1131.00
2023-03-29T06:11:12.539Z,1118.00
2023-03-29T06:12:12.659Z,1117.00
2023-03-29T06:13:12.506Z,1113.00
2023-03-29T06:14:12.647Z,1235.00
2023-03-29T06:15:12.724Z,1233.00
2023-03-29T06:18:12.390Z,1302.00
2023-03-29T06:19:11.522Z,1307.00
2023-03-29T06:20:12.476Z,1324.00
2023-03-29T06:21:15.480Z,1342.00
2023-03-29T06:25:11.607Z,1478.00
2023-03-29T06:26:11.435Z,1482.00
2023-03-29T06:27:12.567Z,1491.00
2023-03-29T06:30:11.423Z,1569.00
2023-03-29T06:31:12.487Z,1571.00
2023-03-29T06:32:11.401Z,1590.00
2023-03-29T06:33:12.392Z,1619.00
2023-03-29T06:34:12.421Z,1690.00
2023-03-29T06:35:12.936Z,1698.00
2023-03-29T06:40:11.349Z,1796.00
2023-03-29T06:41:12.382Z,1816.00
2023-03-29T06:42:20.490Z,1839.00
2023-03-29T06:43:12.386Z,1845.00
2023-03-29T06:46:11.965Z,1879.00
2023-03-29T06:47:12.327Z,1898.00
2023-03-29T06:48:12.299Z,1931.00
2023-03-29T06:51:11.301Z,2065.00
2023-03-29T06:52:11.546Z,2085.00
2023-03-29T06:53:12.275Z,2101.00
2023-03-29T06:54:12.261Z,1144.00
2023-03-29T06:55:12.264Z,952.00
2023-03-29T06:56:12.467Z,1027.00
2023-03-29T06:57:13.469Z,1084.00
2023-03-29T06:58:12.446Z,1262.00
2023-03-29T07:02:11.584Z,1497.00
2023-03-29T07:04:11.618Z,1568.00
2023-03-29T07:05:12.610Z,1577.00
2023-03-29T07:06:12.640Z,1586.00
2023-03-29T07:07:11.710Z,1615.00
2023-03-29T07:08:12.723Z,1636.00
2023-03-29T07:09:12.734Z,1646.00
2023-03-29T07:10:12.836Z,1678.00
2023-03-29T07:11:13.150Z,1719.00
2023-03-29T07:13:11.767Z,1807.00
2023-03-29T07:14:12.071Z,1834.00
2023-03-29T07:15:18.732Z,1846.00
2023-03-29T07:17:11.726Z,1899.00
2023-03-29T07:21:11.724Z,2046.00
2023-03-29T07:22:11.707Z,2039.00
2023-03-29T07:23:12.687Z,2021.00
2023-03-29T07:28:11.657Z,1836.00
2023-03-29T07:29:12.696Z,1927.00
2023-03-29T07:30:12.647Z,2055.00
2023-03-29T07:32:11.699Z,1889.00
2023-03-29T07:33:12.740Z,1902.00
2023-03-29T07:35:11.622Z,1994.00
2023-03-29T07:36:12.677Z,1995.00
2023-03-29T07:37:12.623Z,2293.00
2023-03-29T07:41:11.585Z,2341.00
2023-03-29T07:42:12.578Z,2384.00
2023-03-29T07:43:13.079Z,2482.00
2023-03-29T07:44:12.573Z,2417.00
2023-03-29T07:46:11.607Z,2458.00
2023-03-29T07:47:12.577Z,2493.00
2023-03-29T07:49:11.608Z,2383.00
2023-03-29T07:50:12.677Z,2476.00
2023-03-29T07:51:12.719Z,2453.00
2023-03-29T07:52:13.084Z,2407.00
2023-03-29T07:53:12.822Z,2430.00
2023-03-29T07:54:12.879Z,2483.00
2023-03-29T07:55:12.962Z,2491.00
2023-03-29T07:56:12.991Z,2496.00
2023-03-29T07:57:13.068Z,2496.00
2023-03-29T07:58:13.120Z,2496.00
2023-03-29T07:59:13.178Z,2494.00
2023-03-29T08:00:12.239Z,2492.00
2023-03-29T08:01:15.348Z,2481.00
2023-03-29T08:06:12.259Z,2457.00
2023-03-29T08:07:13.283Z,2451.00
2023-03-29T08:11:12.242Z,2435.00
2023-03-29T08:12:13.230Z,2432.00
2023-03-29T08:13:12.212Z,2433.00
2023-03-29T08:14:13.232Z,2432.00
2023-03-29T08:18:12.227Z,2420.00
2023-03-29T08:21:12.166Z,2408.00
2023-03-29T08:22:13.147Z,2405.00
2023-03-29T08:24:12.153Z,2396.00
2023-03-29T08:25:13.144Z,2392.00
2023-03-29T08:26:12.140Z,2383.00
2023-03-29T08:29:12.150Z,2376.00
2023-03-29T08:30:13.142Z,2368.00
2023-03-29T08:31:13.296Z,2364.00
2023-03-29T08:32:13.159Z,2355.00
2023-03-29T08:33:12.267Z,2346.00
2023-03-29T08:34:13.179Z,2343.00
2023-03-29T08:35:13.185Z,2339.00
2023-03-29T08:36:13.273Z,2337.00
2023-03-29T08:39:12.254Z,2314.00
2023-03-29T08:40:13.253Z,2311.00
2023-03-29T08:41:13.298Z,2303.00
2023-03-29T08:42:13.615Z,2286.00
2023-03-29T08:43:13.315Z,2276.00
2023-03-29T08:46:12.377Z,2268.00
2023-03-29T08:47:17.823Z,2270.00
2023-03-29T08:51:12.351Z,2253.00
2023-03-29T08:52:13.360Z,2250.00
2023-03-29T08:53:13.386Z,2241.00
2023-03-29T08:54:13.383Z,2232.00
2023-03-29T08:55:13.404Z,2224.00
2023-03-29T08:56:13.417Z,2216.00
2023-03-29T08:57:13.539Z,2213.00
2023-03-29T08:58:13.615Z,2214.00
2023-03-29T09:00:12.455Z,2205.00
2023-03-29T09:01:13.489Z,2202.00
2023-03-29T09:02:13.556Z,2196.00
2023-03-29T09:03:13.633Z,2192.00
2023-03-29T09:04:13.579Z,2198.00
2023-03-29T09:05:13.563Z,2207.00
2023-03-29T09:06:13.561Z,2215.00
2023-03-29T09:07:13.571Z,2218.00
2023-03-29T09:08:13.610Z,2223.00
2023-03-29T09:09:13.582Z,2222.00
2023-03-29T09:10:13.638Z,2222.00
2023-03-29T09:15:12.684Z,2216.00
2023-03-29T09:16:13.757Z,2208.00
2023-03-29T09:17:13.743Z,2201.00
2023-03-29T09:18:13.820Z,2199.00
2023-03-29T09:19:12.739Z,2193.00
2023-03-29T09:20:12.777Z,2193.00
2023-03-29T09:21:12.806Z,2189.00
2023-03-29T09:24:12.840Z,2170.00
2023-03-29T09:25:13.865Z,2090.00
2023-03-29T09:27:12.897Z,2041.00
2023-03-29T09:28:12.931Z,2113.00
2023-03-29T09:31:12.964Z,2146.00
2023-03-29T09:32:13.969Z,2141.00
2023-03-29T09:33:14.040Z,2139.00
2023-03-29T09:34:15.307Z,2143.00
2023-03-29T09:36:13.040Z,2150.00
2023-03-29T09:39:12.975Z,2153.00
2023-03-29T09:40:13.971Z,2158.00
2023-03-29T09:44:27.669Z,2202.00
2023-03-29T09:45:13.938Z,2209.00
2023-03-29T09:46:12.971Z,2264.00
2023-03-29T09:47:13.926Z,2014.00
2023-03-29T09:48:14.144Z,1766.00
2023-03-29T09:52:12.930Z,829.00
2023-03-29T09:53:13.169Z,842.00
2023-03-29T09:54:13.872Z,799.00
2023-03-29T09:56:12.870Z,731.00
2023-03-29T09:57:13.902Z,731.00
2023-03-29T09:58:13.898Z,757.00
2023-03-29T09:59:13.830Z,620.00
2023-03-29T10:00:13.843Z,597.00
2023-03-29T10:02:12.853Z,613.00
2023-03-29T10:03:13.892Z,611.00
2023-03-29T10:04:13.976Z,602.00
2023-03-29T10:05:13.023Z,563.00
2023-03-29T10:06:14.058Z,557.00
2023-03-29T10:07:14.066Z,533.00
2023-03-29T10:11:13.289Z,564.00
2023-03-29T10:14:13.413Z,812.00
2023-03-29T10:15:26.768Z,744.00
2023-03-29T10:17:13.427Z,983.00
2023-03-29T10:18:14.446Z,999.00
2023-03-29T10:19:14.401Z,1012.00
2023-03-29T10:21:13.381Z,1023.00
2023-03-29T10:23:13.389Z,1068.00
2023-03-29T10:24:14.383Z,1167.00
2023-03-29T10:25:14.386Z,1205.00
2023-03-29T10:26:13.360Z,1207.00
2023-03-29T10:27:14.348Z,1208.00
2023-03-29T10:28:14.398Z,1218.00
2023-03-29T10:32:13.301Z,1391.00
2023-03-29T10:33:14.308Z,1399.00
2023-03-29T10:34:13.314Z,1415.00
2023-03-29T10:35:14.277Z,1430.00
2023-03-29T10:36:14.306Z,1449.00
2023-03-29T10:41:13.287Z,1598.00
2023-03-29T10:42:14.254Z,1694.00
2023-03-29T10:43:14.241Z,1681.00
2023-03-29T10:44:14.641Z,1677.00
2023-03-29T10:46:13.418Z,1686.00
2023-03-29T10:47:13.233Z,1689.00
2023-03-29T10:48:14.256Z,1687.00
2023-03-29T10:49:14.293Z,1682.00
2023-03-29T10:50:14.305Z,1679.00
2023-03-29T10:51:14.331Z,1679.00
2023-03-29T10:52:14.313Z,1679.00
2023-03-29T10:55:13.307Z,1681.00
2023-03-29T10:56:14.320Z,1683.00
2023-03-29T10:57:14.401Z,1682.00
2023-03-29T10:58:14.313Z,1679.00
2023-03-29T10:59:14.343Z,1678.00
2023-03-29T11:00:14.375Z,1680.00
2023-03-29T11:01:13.387Z,1676.00
2023-03-29T11:02:13.418Z,1675.00
2023-03-29T11:03:17.052Z,1678.00
2023-03-29T11:04:14.384Z,1681.00
2023-03-29T11:08:13.350Z,1678.00
2023-03-29T11:09:14.358Z,1682.00
2023-03-29T11:10:14.354Z,1690.00
2023-03-29T11:13:13.593Z,1685.00
2023-03-29T11:14:14.808Z,1691.00
2023-03-29T11:17:13.292Z,1713.00
2023-03-29T11:18:14.297Z,1723.00
2023-03-29T11:20:13.271Z,1729.00
2023-03-29T11:21:13.261Z,1732.00
2023-03-29T11:22:14.248Z,1732.00
2023-03-29T11:23:14.587Z,1734.00
2023-03-29T11:25:13.271Z,1740.00
2023-03-29T11:26:14.239Z,1742.00
2023-03-29T11:28:13.354Z,1747.00
2023-03-29T11:29:15.049Z,1749.00
2023-03-29T11:33:13.433Z,1758.00
2023-03-29T11:34:14.434Z,1761.00
2023-03-29T11:35:15.066Z,1762.00
2023-03-29T11:37:13.544Z,1736.00
2023-03-29T11:38:14.576Z,1733.00
2023-03-29T11:39:13.667Z,1739.00
2023-03-29T11:40:15.391Z,1736.00
2023-03-29T11:41:14.702Z,1738.00
2023-03-29T11:43:13.731Z,1755.00
2023-03-29T11:44:14.820Z,1760.00
2023-03-29T11:46:13.914Z,1766.00
2023-03-29T11:47:14.890Z,1773.00
2023-03-29T11:48:14.919Z,1773.00
2023-03-29T11:49:14.957Z,1762.00
2023-03-29T11:50:13.963Z,1750.00
2023-03-29T11:51:15.003Z,1754.00
2023-03-29T11:52:15.023Z,1760.00
2023-03-29T11:53:15.068Z,1761.00
2023-03-29T11:54:15.123Z,1764.00
2023-03-29T11:55:15.145Z,1767.00
2023-03-29T11:56:15.461Z,1771.00
2023-03-29T12:01:14.394Z,1755.00
2023-03-29T12:04:14.469Z,1746.00
2023-03-29T12:05:15.499Z,1736.00
2023-03-29T12:06:15.819Z,1732.00
2023-03-29T12:09:16.647Z,1204.00
2023-03-29T12:10:15.668Z,816.00
2023-03-29T12:11:15.704Z,562.00
2023-03-29T12:12:15.752Z,549.00
2023-03-29T12:13:15.766Z,525.00
2023-03-29T12:16:14.883Z,453.00
2023-03-29T12:17:15.909Z,450.00
2023-03-29T12:18:15.965Z,431.00
2023-03-29T12:19:14.947Z,427.00
2023-03-29T12:20:15.929Z,442.00
2023-03-29T12:24:15.063Z,526.00
2023-03-29T12:30:15.257Z,746.00
2023-03-29T12:33:16.044Z,765.00
2023-03-29T12:34:16.378Z,776.00
2023-03-29T12:35:16.421Z,784.00
2023-03-29T12:39:15.431Z,866.00
2023-03-29T12:40:16.509Z,915.00
2023-03-29T12:45:15.757Z,1129.00
2023-03-29T12:46:16.880Z,874.00
2023-03-29T12:48:15.876Z,582.00
2023-03-29T12:49:19.213Z,558.00
2023-03-29T12:51:15.888Z,598.00
2023-03-29T12:52:16.869Z,627.00
2023-03-29T12:53:16.878Z,691.00
2023-03-29T12:56:15.859Z,733.00
2023-03-29T12:57:16.882Z,868.00
2023-03-29T13:01:15.890Z,987.00
2023-03-29T13:02:16.890Z,1081.00
2023-03-29T13:04:15.799Z,1160.00
2023-03-29T13:05:16.912Z,1151.00
2023-03-29T13:07:15.782Z,1231.00
2023-03-29T13:08:15.809Z,1251.00
2023-03-29T13:09:16.771Z,1219.00
2023-03-29T13:12:15.869Z,1255.00
2023-03-29T13:13:16.784Z,1274.00
2023-03-29T13:14:16.792Z,1285.00
2023-03-29T13:15:16.848Z,1304.00
2023-03-29T13:16:16.948Z,1312.00
2023-03-29T13:17:18.913Z,1312.00
2023-03-29T13:21:15.950Z,1408.00
2023-03-29T13:22:16.926Z,1424.00
2023-03-29T13:24:15.902Z,1448.00
2023-03-29T13:25:16.883Z,1472.00
2023-03-29T13:31:15.863Z,1565.00
2023-03-29T13:32:16.841Z,1548.00
2023-03-29T13:34:15.819Z,1544.00
2023-03-29T13:35:16.833Z,1535.00
2023-03-29T13:37:15.830Z,1525.00
2023-03-29T13:38:16.815Z,1536.00
2023-03-29T13:39:16.802Z,1556.00
2023-03-29T13:44:15.751Z,1531.00
2023-03-29T13:45:16.822Z,1525.00
2023-03-29T13:46:16.794Z,1533.00
2023-03-29T13:47:16.732Z,1537.00
2023-03-29T13:52:15.712Z,1506.00
2023-03-29T13:53:16.714Z,1495.00
2023-03-29T13:54:16.691Z,1491.00
2023-03-29T13:59:15.650Z,1477.00
2023-03-29T14:00:15.732Z,1474.00
2023-03-29T14:01:16.723Z,1474.00
2023-03-29T14:03:15.698Z,1475.00
2023-03-29T14:04:16.635Z,1471.00
2023-03-29T14:05:16.775Z,1475.00
2023-03-29T14:06:16.696Z,1476.00
2023-03-29T14:07:16.712Z,1477.00
2023-03-29T14:08:16.782Z,1476.00
2023-03-29T14:10:15.798Z,1476.00
2023-03-29T14:11:16.826Z,1475.00
2023-03-29T14:14:15.898Z,1472.00
2023-03-29T14:15:16.928Z,1473.00
2023-03-29T14:16:16.988Z,1474.00
2023-03-29T14:17:16.981Z,1473.00
2023-03-29T14:20:16.070Z,1464.00
2023-03-29T14:21:17.112Z,1460.00
2023-03-29T14:22:17.112Z,1456.00
2023-03-29T14:23:17.133Z,1456.00
2023-03-29T14:27:16.274Z,1455.00
2023-03-29T14:28:17.286Z,1455.00
2023-03-29T14:29:17.307Z,1458.00
2023-03-29T14:30:17.335Z,1459.00
2023-03-29T14:35:16.492Z,1462.00
2023-03-29T14:36:17.713Z,1462.00
2023-03-29T14:37:16.562Z,1464.00
2023-03-29T14:38:17.653Z,1463.00
2023-03-29T14:43:16.813Z,1457.00
2023-03-29T14:44:17.853Z,1455.00
2023-03-29T14:45:17.898Z,1454.00
2023-03-29T14:46:17.953Z,1453.00
2023-03-29T14:47:17.981Z,1452.00
2023-03-29T14:48:18.034Z,1456.00
2023-03-29T14:49:18.064Z,1455.00
2023-03-29T14:50:18.119Z,1454.00
2023-03-29T14:51:17.169Z,1452.00
2023-03-29T14:52:18.196Z,1450.00
2023-03-29T14:53:18.240Z,1446.00
2023-03-29T14:54:18.286Z,1441.00
2023-03-29T14:55:18.328Z,1440.00
2023-03-29T14:56:18.389Z,1442.00
2023-03-29T14:57:18.527Z,1439.00
2023-03-29T14:58:18.472Z,1439.00
2023-03-29T14:59:18.526Z,1440.00
2023-03-29T15:00:17.637Z,1442.00
2023-03-29T15:01:18.627Z,1443.00
2023-03-29T15:02:18.668Z,1442.00
2023-03-29T15:03:18.781Z,1439.00
2023-03-29T15:07:17.915Z,1434.00
2023-03-29T15:08:18.973Z,1434.00
2023-03-29T15:09:19.029Z,1433.00
2023-03-29T15:10:19.100Z,1433.00
2023-03-29T15:11:19.176Z,1433.00
2023-03-29T15:12:18.234Z,1432.00
2023-03-29T15:13:19.264Z,1436.00
2023-03-29T15:14:19.333Z,1436.00
2023-03-29T15:15:19.405Z,1434.00
2023-03-29T15:20:18.696Z,1428.00
2023-03-29T15:21:19.765Z,1429.00
2023-03-29T15:22:19.835Z,1430.00
2023-03-29T15:23:19.909Z,1432.00
2023-03-29T15:24:19.966Z,1429.00
2023-03-29T15:25:20.032Z,1427.00
2023-03-29T15:26:20.106Z,1428.00
2023-03-29T15:27:20.157Z,1426.00
2023-03-29T15:28:20.268Z,1422.00
2023-03-29T15:29:20.291Z,1423.00
2023-03-29T15:30:20.325Z,1423.00
2023-03-29T15:31:31.907Z,1422.00
2023-03-29T15:32:20.389Z,1425.00
2023-03-29T15:33:20.496Z,1427.00
2023-03-29T15:34:20.353Z,1426.00
2023-03-29T15:35:20.333Z,1428.00
2023-03-29T15:36:20.427Z,1424.00
2023-03-29T15:37:19.367Z,1422.00
2023-03-29T15:38:23.342Z,1422.00
2023-03-29T15:39:20.482Z,1422.00
2023-03-29T15:40:20.344Z,1417.00
2023-03-29T15:41:20.371Z,1413.00
2023-03-29T15:42:20.420Z,1413.00
2023-03-29T15:43:20.306Z,1413.00
2023-03-29T15:44:20.327Z,1411.00
2023-03-29T15:45:20.394Z,1408.00
2023-03-29T15:46:20.328Z,1406.00
2023-03-29T15:47:20.328Z,1402.00
2023-03-29T15:48:20.294Z,1402.00
2023-03-29T15:49:20.281Z,1402.00
2023-03-29T15:50:20.315Z,1403.00
2023-03-29T15:51:19.687Z,1400.00
2023-03-29T15:52:20.340Z,1399.00
2023-03-29T15:53:20.344Z,1396.00
2023-03-29T15:54:20.252Z,1394.00
2023-03-29T15:55:20.229Z,1395.00
2023-03-29T15:56:20.261Z,1397.00